createdAt,value
2023-02-03T00:01:16.954Z,2.00
2023-02-03T00:04:02.247Z,1.90
2023-02-03T00:06:53.456Z,2.30
2023-02-03T00:09:38.720Z,3.10
2023-02-03T00:12:26.937Z,2.20
2023-02-03T00:15:12.226Z,2.47
2023-02-03T00:17:57.638Z,2.37
2023-02-03T00:20:42.937Z,2.50
2023-02-03T00:23:32.116Z,2.20
2023-02-03T00:26:18.560Z,2.47
2023-02-03T00:29:04.086Z,2.03
2023-02-03T00:31:53.621Z,2.73
2023-02-03T00:34:39.357Z,1.60
2023-02-03T00:37:26.950Z,2.10
2023-02-03T00:40:13.109Z,1.70
2023-02-03T00:43:03.388Z,1.57
2023-02-03T00:45:51.360Z,1.50
2023-02-03T00:48:36.907Z,2.07
2023-02-03T00:51:23.010Z,1.87
2023-02-03T00:54:08.343Z,2.00
2023-02-03T00:56:53.900Z,2.20
2023-02-03T00:59:40.412Z,1.80
2023-02-03T01:02:25.898Z,1.93
2023-02-03T01:05:12.006Z,2.20
2023-02-03T01:08:00.573Z,2.20
2023-02-03T01:10:48.379Z,2.10
2023-02-03T01:13:33.674Z,1.90
2023-02-03T01:16:22.618Z,1.93
2023-02-03T01:19:10.660Z,2.13
2023-02-03T01:21:56.219Z,2.20
2023-02-03T01:24:43.871Z,1.97
2023-02-03T01:27:29.122Z,2.43
2023-02-03T01:30:14.795Z,3.00
2023-02-03T01:33:00.371Z,2.33
2023-02-03T01:35:48.797Z,2.00
2023-02-03T01:38:36.323Z,2.90
2023-02-03T01:41:24.670Z,1.60
2023-02-03T01:44:41.263Z,2.60
2023-02-03T01:47:38.329Z,2.20
2023-02-03T01:50:36.896Z,2.23
2023-02-03T01:53:24.899Z,1.90
2023-02-03T01:56:12.672Z,2.50
2023-02-03T01:59:00.299Z,2.03
2023-02-03T02:01:47.064Z,2.30
2023-02-03T02:04:45.825Z,2.10
2023-02-03T02:07:33.546Z,2.07
2023-02-03T02:10:19.110Z,1.97
2023-02-03T02:13:08.967Z,2.67
2023-02-03T02:16:16.878Z,2.10
2023-02-03T02:19:20.832Z,2.53
2023-02-03T02:22:14.894Z,2.10
2023-02-03T02:25:23.876Z,2.30
2023-02-03T02:28:27.409Z,2.60
2023-02-03T02:31:42.070Z,2.77
2023-02-03T02:35:03.615Z,3.63
2023-02-03T02:38:24.843Z,2.00
2023-02-03T02:41:23.061Z,2.30
2023-02-03T02:44:11.659Z,2.50
2023-02-03T02:47:12.950Z,1.80
2023-02-03T02:50:25.797Z,2.30
2023-02-03T02:53:13.326Z,1.87
2023-02-03T02:56:03.359Z,2.17
2023-02-03T02:58:53.387Z,2.40
2023-02-03T03:01:41.293Z,1.70
2023-02-03T03:04:33.463Z,1.50
2023-02-03T03:07:23.396Z,1.73
2023-02-03T03:10:13.637Z,1.80
2023-02-03T03:13:09.853Z,2.00
2023-02-03T03:15:59.509Z,2.20
2023-02-03T03:18:49.112Z,1.97
2023-02-03T03:21:54.354Z,1.53
2023-02-03T03:24:50.634Z,2.07
2023-02-03T03:27:43.895Z,2.00
2023-02-03T03:30:39.197Z,1.37
2023-02-03T03:33:27.233Z,1.70
2023-02-03T03:36:22.451Z,2.10
2023-02-03T03:39:39.338Z,1.57
2023-02-03T03:42:46.173Z,1.33
2023-02-03T03:45:58.030Z,1.60
2023-02-03T03:48:55.404Z,1.30
2023-02-03T03:51:44.913Z,1.40
2023-02-03T03:54:31.691Z,1.33
2023-02-03T03:57:36.457Z,1.13
2023-02-03T04:00:23.287Z,1.27
2023-02-03T04:03:16.090Z,1.33
2023-02-03T04:06:02.122Z,1.23
2023-02-03T04:08:47.467Z,1.23
2023-02-03T04:11:51.272Z,1.27
2023-02-03T04:14:40.870Z,1.70
2023-02-03T04:17:27.012Z,1.40
2023-02-03T04:20:13.040Z,1.30
2023-02-03T04:22:59.251Z,1.10
2023-02-03T04:25:44.777Z,1.43
2023-02-03T04:28:30.386Z,1.87
2023-02-03T04:31:17.246Z,2.07
2023-02-03T04:34:04.695Z,2.10
2023-02-03T04:36:50.097Z,2.40
2023-02-03T04:39:35.521Z,2.50
2023-02-03T04:42:23.335Z,2.57
2023-02-03T04:45:11.629Z,1.80
2023-02-03T04:47:56.880Z,2.90
2023-02-03T04:50:42.163Z,2.80
2023-02-03T04:53:29.719Z,2.27
2023-02-03T04:56:16.379Z,2.40
2023-02-03T04:59:02.458Z,2.50
2023-02-03T05:01:49.750Z,3.37
2023-02-03T05:04:35.073Z,3.47
2023-02-03T05:07:20.862Z,4.00
2023-02-03T05:10:06.889Z,3.70
2023-02-03T05:12:52.684Z,4.33
2023-02-03T05:15:40.335Z,4.40
2023-02-03T05:18:28.216Z,4.10
2023-02-03T05:21:14.088Z,4.80
2023-02-03T05:24:03.720Z,5.07
2023-02-03T05:26:49.263Z,5.10
2023-02-03T05:29:34.773Z,5.50
2023-02-03T05:32:24.895Z,6.70
2023-02-03T05:35:10.179Z,6.03
2023-02-03T05:37:59.422Z,6.17
2023-02-03T05:41:06.307Z,7.20
2023-02-03T05:43:54.976Z,7.40
2023-02-03T05:46:40.166Z,8.00
2023-02-03T05:49:26.322Z,7.70
2023-02-03T05:52:11.565Z,7.70
2023-02-03T05:54:59.519Z,6.83
2023-02-03T05:57:44.773Z,7.93
2023-02-03T06:00:30.904Z,8.97
2023-02-03T06:03:16.384Z,8.10
2023-02-03T06:06:04.916Z,8.27
2023-02-03T06:08:56.142Z,8.53
2023-02-03T06:11:44.247Z,8.40
2023-02-03T06:14:29.465Z,8.87
2023-02-03T06:17:17.154Z,8.30
2023-02-03T06:20:07.279Z,9.00
2023-02-03T06:22:52.599Z,7.47
2023-02-03T06:25:38.041Z,8.43
2023-02-03T06:28:23.531Z,7.77
2023-02-03T06:31:09.680Z,7.97
2023-02-03T06:33:57.210Z,9.00
2023-02-03T06:36:42.436Z,7.97
2023-02-03T06:39:27.981Z,7.43
2023-02-03T06:42:13.452Z,8.67
2023-02-03T06:44:59.180Z,8.03
2023-02-03T06:47:46.531Z,8.13
2023-02-03T06:50:31.987Z,7.37
2023-02-03T06:53:17.085Z,7.70
2023-02-03T06:56:03.434Z,8.80
2023-02-03T06:58:48.764Z,8.40
2023-02-03T07:01:34.032Z,7.73
2023-02-03T07:04:19.860Z,7.67
2023-02-03T07:07:05.951Z,7.67
2023-02-03T07:09:51.374Z,7.93
2023-02-03T07:12:39.147Z,7.23
2023-02-03T07:15:24.804Z,7.80
2023-02-03T07:18:10.820Z,7.10
2023-02-03T07:20:59.930Z,7.00
2023-02-03T07:23:49.154Z,7.10
2023-02-03T07:26:34.942Z,6.93
2023-02-03T07:29:23.145Z,7.67
2023-02-03T07:32:08.682Z,6.50
2023-02-03T07:34:54.299Z,6.70
2023-02-03T07:37:39.803Z,6.87
2023-02-03T07:40:26.166Z,6.87
2023-02-03T07:43:11.964Z,5.97
2023-02-03T07:45:57.407Z,6.17
2023-02-03T07:48:43.015Z,6.23
2023-02-03T07:51:28.344Z,5.43
2023-02-03T07:54:15.357Z,5.70
2023-02-03T07:57:03.647Z,5.50
2023-02-03T07:59:48.792Z,5.47
2023-02-03T08:02:34.352Z,5.57
2023-02-03T08:05:19.944Z,4.90
2023-02-03T08:08:05.580Z,5.17
2023-02-03T08:10:58.530Z,4.60
2023-02-03T08:13:44.364Z,5.13
2023-02-03T08:16:32.021Z,3.47
2023-02-03T08:19:17.832Z,4.30
2023-02-03T08:22:03.254Z,4.93
2023-02-03T08:24:49.339Z,4.20
2023-02-03T08:27:34.800Z,3.87
2023-02-03T08:30:19.995Z,3.67
2023-02-03T08:33:05.290Z,3.80
2023-02-03T08:35:51.108Z,3.60
2023-02-03T08:38:39.663Z,3.53
2023-02-03T08:41:30.105Z,3.50
2023-02-03T08:44:15.416Z,3.90
2023-02-03T08:47:03.957Z,3.37
2023-02-03T08:49:49.275Z,3.60
2023-02-03T08:52:35.863Z,3.30
2023-02-03T08:55:24.625Z,3.30
2023-02-03T08:58:10.117Z,2.97
2023-02-03T09:00:55.674Z,3.00
2023-02-03T09:03:43.841Z,3.20
2023-02-03T09:06:31.730Z,2.77
2023-02-03T09:09:21.302Z,3.30
2023-02-03T09:12:11.643Z,2.53
2023-02-03T09:14:57.789Z,2.90
2023-02-03T09:17:45.972Z,2.57
2023-02-03T09:20:31.845Z,2.43
2023-02-03T09:23:19.935Z,2.23
2023-02-03T09:26:10.272Z,3.17
2023-02-03T09:28:55.558Z,2.63
2023-02-03T09:31:41.369Z,2.10
2023-02-03T09:34:29.044Z,1.77
2023-02-03T09:37:14.713Z,2.43
2023-02-03T09:40:02.540Z,2.57
2023-02-03T09:42:53.217Z,3.07
2023-02-03T09:45:38.627Z,1.77
2023-02-03T09:48:31.425Z,2.00
2023-02-03T09:51:22.560Z,2.50
2023-02-03T09:54:21.835Z,1.80
2023-02-03T09:57:15.757Z,2.03
2023-02-03T10:00:10.475Z,2.00
2023-02-03T10:03:23.853Z,1.70
2023-02-03T10:06:24.436Z,1.70
2023-02-03T10:09:44.840Z,2.10
2023-02-03T10:13:18.868Z,2.20
2023-02-03T10:16:11.988Z,2.50
2023-02-03T10:19:04.179Z,2.47
2023-02-03T10:21:58.639Z,1.80
2023-02-03T10:24:53.935Z,1.90
2023-02-03T10:27:39.252Z,1.43
2023-02-03T10:30:34.508Z,1.60
2023-02-03T10:33:21.063Z,1.60
2023-02-03T10:36:09.663Z,1.40
2023-02-03T10:39:25.029Z,1.27
2023-02-03T10:42:12.845Z,1.10
2023-02-03T10:44:59.797Z,1.33
2023-02-03T10:47:56.228Z,1.43
2023-02-03T10:50:48.867Z,0.70
2023-02-03T10:53:36.423Z,1.00
2023-02-03T10:56:26.834Z,1.13
2023-02-03T10:59:30.094Z,0.70
2023-02-03T11:02:42.110Z,1.20
2023-02-03T11:05:28.504Z,2.47
2023-02-03T11:08:20.112Z,1.37
2023-02-03T11:11:08.897Z,1.33
2023-02-03T11:14:17.561Z,1.53
2023-02-03T11:17:08.288Z,2.20
2023-02-03T11:19:58.245Z,1.50
2023-02-03T11:22:44.775Z,0.97
2023-02-03T11:25:33.531Z,2.23
2023-02-03T11:28:19.328Z,1.37
2023-02-03T11:31:05.420Z,2.13
2023-02-03T11:34:01.350Z,1.53
2023-02-03T11:36:46.666Z,1.57
2023-02-03T11:39:35.843Z,1.50
2023-02-03T11:42:23.608Z,1.73
2023-02-03T11:45:18.887Z,2.03
2023-02-03T11:48:36.999Z,1.50
2023-02-03T11:51:41.931Z,1.80
2023-02-03T11:54:39.493Z,1.80
2023-02-03T11:58:00.162Z,2.00
2023-02-03T12:01:10.496Z,2.50
2023-02-03T12:04:24.260Z,1.93
2023-02-03T12:07:18.830Z,1.97
2023-02-03T12:10:30.654Z,1.80
2023-02-03T12:13:27.602Z,2.00
2023-02-03T12:16:31.824Z,2.87
2023-02-03T12:19:59.171Z,2.20
2023-02-03T12:23:13.958Z,2.07
2023-02-03T12:26:25.845Z,2.27
2023-02-03T12:29:20.638Z,3.10
2023-02-03T12:32:21.336Z,2.90
2023-02-03T12:35:25.405Z,2.50
2023-02-03T12:38:27.508Z,2.43
2023-02-03T12:41:17.565Z,2.10
2023-02-03T12:44:13.861Z,2.70
2023-02-03T12:47:26.570Z,2.63
2023-02-03T12:50:34.612Z,3.30
2023-02-03T12:53:26.850Z,3.50
2023-02-03T12:56:17.124Z,3.10
2023-02-03T12:59:07.265Z,1.93
2023-02-03T13:01:58.761Z,1.30
2023-02-03T13:04:55.328Z,1.00
2023-02-03T13:08:23.011Z,0.87
2023-02-03T13:11:37.186Z,1.57
2023-02-03T13:14:27.063Z,1.43
2023-02-03T13:17:20.742Z,1.40
2023-02-03T13:20:20.027Z,1.10
2023-02-03T13:23:10.489Z,1.27
2023-02-03T13:26:21.576Z,1.77
2023-02-03T13:29:29.062Z,1.20
2023-02-03T13:32:26.886Z,2.10
2023-02-03T13:35:55.638Z,2.10
2023-02-03T13:39:11.766Z,2.00
2023-02-03T13:42:26.450Z,2.03
2023-02-03T13:45:25.430Z,1.73
2023-02-03T13:48:33.634Z,2.27
2023-02-03T13:51:34.790Z,2.07
2023-02-03T13:54:32.381Z,1.87
2023-02-03T13:57:31.449Z,2.77
2023-02-03T14:00:46.198Z,2.33
2023-02-03T14:03:31.523Z,2.90
2023-02-03T14:06:38.513Z,1.63
2023-02-03T14:09:34.425Z,2.67
2023-02-03T14:12:33.285Z,2.53
2023-02-03T14:15:21.248Z,2.60
2023-02-03T14:18:21.623Z,2.37
2023-02-03T14:21:14.772Z,4.17
2023-02-03T14:24:09.168Z,1.40
2023-02-03T14:27:00.104Z,2.67
2023-02-03T14:29:45.918Z,2.40
2023-02-03T14:33:04.011Z,1.90
2023-02-03T14:35:49.710Z,2.63
2023-02-03T14:38:35.918Z,2.53
2023-02-03T14:41:34.388Z,2.17
2023-02-03T14:44:34.629Z,3.00
2023-02-03T14:47:35.223Z,3.10
2023-02-03T14:50:42.484Z,3.63
2023-02-03T14:54:12.742Z,2.43
2023-02-03T14:57:23.397Z,2.87
2023-02-03T15:00:24.079Z,3.27
2023-02-03T15:03:11.999Z,2.23
2023-02-03T15:06:01.605Z,2.83
2023-02-03T15:08:48.322Z,4.20
2023-02-03T15:11:43.769Z,3.60
2023-02-03T15:14:33.268Z,3.60
2023-02-03T15:17:24.061Z,2.73
2023-02-03T15:20:35.072Z,3.03
2023-02-03T15:23:23.358Z,2.30
2023-02-03T15:26:27.460Z,2.37
2023-02-03T15:29:31.201Z,2.30
2023-02-03T15:33:01.251Z,4.30
2023-02-03T15:35:55.118Z,2.43
2023-02-03T15:38:46.311Z,3.13
2023-02-03T15:41:32.108Z,2.00
2023-02-03T15:44:30.795Z,2.83
2023-02-03T15:47:28.299Z,2.43
2023-02-03T15:50:27.700Z,3.17
2023-02-03T15:53:45.301Z,3.00
2023-02-03T15:56:56.943Z,2.90
2023-02-03T15:59:49.077Z,2.50
2023-02-03T16:02:46.154Z,2.07
2023-02-03T16:05:34.274Z,2.20
2023-02-03T16:08:36.770Z,2.03
2023-02-03T16:11:23.468Z,2.30
2023-02-03T16:14:33.353Z,2.97
2023-02-03T16:17:21.183Z,2.10
2023-02-03T16:20:13.087Z,2.40
2023-02-03T16:23:24.055Z,2.13
2023-02-03T16:26:22.382Z,2.60
2023-02-03T16:29:26.373Z,3.07
2023-02-03T16:32:38.062Z,2.70
2023-02-03T16:35:43.295Z,3.77
2023-02-03T16:38:47.131Z,2.17
2023-02-03T16:41:51.615Z,2.57
2023-02-03T16:44:55.342Z,2.83
2023-02-03T16:47:59.745Z,2.00
2023-02-03T16:50:59.341Z,2.70
2023-02-03T16:53:48.278Z,2.90
2023-02-03T16:56:33.777Z,3.43
2023-02-03T16:59:19.594Z,3.17
2023-02-03T17:02:05.449Z,2.27
2023-02-03T17:04:51.274Z,2.03
2023-02-03T17:07:37.096Z,2.20
2023-02-03T17:10:24.909Z,2.67
2023-02-03T17:13:10.641Z,2.60
2023-02-03T17:15:57.259Z,3.13
2023-02-03T17:18:43.513Z,2.90
2023-02-03T17:21:30.787Z,2.17
2023-02-03T17:24:19.592Z,2.77
2023-02-03T17:27:05.248Z,2.13
2023-02-03T17:29:50.977Z,1.87
2023-02-03T17:32:38.507Z,2.23
2023-02-03T17:35:23.790Z,2.03
2023-02-03T17:38:12.362Z,2.10
2023-02-03T17:53:21.290Z,4.60
2023-02-03T17:56:14.261Z,2.07
2023-02-03T17:59:01.532Z,2.47
2023-02-03T18:01:52.161Z,2.17
2023-02-03T18:04:37.985Z,2.70
2023-02-03T18:07:23.592Z,2.20
2023-02-03T18:10:09.241Z,2.40
2023-02-03T18:12:54.880Z,3.47
2023-02-03T18:15:40.462Z,2.53
2023-02-03T18:18:31.394Z,1.83
2023-02-03T18:21:16.841Z,2.87
2023-02-03T18:24:05.855Z,2.13
2023-02-03T18:26:52.082Z,2.10
2023-02-03T18:29:40.995Z,3.70
2023-02-03T18:32:31.822Z,2.90
2023-02-03T18:35:18.755Z,3.17
2023-02-03T18:38:04.029Z,3.63
2023-02-03T18:40:54.839Z,2.40
2023-02-03T18:43:40.657Z,2.60
2023-02-03T18:46:32.152Z,2.30
2023-02-03T18:49:18.039Z,2.97
2023-02-03T18:52:05.266Z,2.13
2023-02-03T18:54:52.138Z,2.83
2023-02-03T18:57:37.756Z,2.73
2023-02-03T19:00:24.039Z,2.60
2023-02-03T19:03:09.872Z,1.50
2023-02-03T19:05:55.601Z,2.00
2023-02-03T19:08:43.484Z,2.57
2023-02-03T19:11:29.191Z,2.20
2023-02-03T19:14:16.303Z,1.83
2023-02-03T19:17:03.181Z,2.13
2023-02-03T19:19:48.391Z,2.10
2023-02-03T19:22:33.918Z,1.63
2023-02-03T19:25:19.333Z,1.63
2023-02-03T19:28:04.664Z,1.43
2023-02-03T19:30:53.300Z,1.17
2023-02-03T19:33:43.331Z,1.30
2023-02-03T19:36:30.557Z,1.60
2023-02-03T19:39:16.263Z,1.63
2023-02-03T19:42:02.199Z,1.00
2023-02-03T19:44:52.673Z,1.77
2023-02-03T19:47:38.480Z,2.73
2023-02-03T19:50:26.879Z,1.50
2023-02-03T19:53:18.962Z,1.73
2023-02-03T19:56:06.992Z,1.30
2023-02-03T19:58:53.736Z,1.40
2023-02-03T20:01:39.764Z,1.40
2023-02-03T20:04:25.099Z,1.20
2023-02-03T20:07:11.964Z,1.07
2023-02-03T20:09:57.544Z,1.10
2023-02-03T20:12:43.025Z,1.63
2023-02-03T20:15:28.305Z,1.60
2023-02-03T20:18:15.744Z,1.40
2023-02-03T20:21:03.429Z,1.13
2023-02-03T20:23:48.708Z,1.40
2023-02-03T20:26:34.862Z,1.43
2023-02-03T20:29:20.690Z,1.40
2023-02-03T20:32:09.964Z,0.97
2023-02-03T20:34:56.113Z,1.37
2023-02-03T20:37:42.315Z,0.83
2023-02-03T20:40:29.721Z,1.20
2023-02-03T20:43:23.016Z,1.60
2023-02-03T20:46:16.447Z,1.40
2023-02-03T20:49:02.185Z,1.10
2023-02-03T20:51:48.484Z,0.90
2023-02-03T20:54:37.171Z,1.10
2023-02-03T20:57:25.588Z,0.83
2023-02-03T21:00:18.716Z,1.00
2023-02-03T21:03:22.841Z,1.00
2023-02-03T21:06:19.258Z,0.80
2023-02-03T21:09:12.978Z,1.13
2023-02-03T21:11:58.582Z,1.10
2023-02-03T21:14:48.946Z,1.00
2023-02-03T21:17:35.930Z,0.93
2023-02-03T21:20:32.741Z,0.60
2023-02-03T21:23:19.289Z,0.80
2023-02-03T21:26:22.797Z,0.70
2023-02-03T21:29:24.030Z,0.90
2023-02-03T21:32:16.358Z,0.70
2023-02-03T21:35:02.240Z,0.67
2023-02-03T21:37:47.533Z,0.57
2023-02-03T21:40:34.787Z,1.10
2023-02-03T21:43:23.764Z,0.60
2023-02-03T21:46:27.019Z,0.70
2023-02-03T21:49:16.194Z,0.70
2023-02-03T21:52:06.882Z,0.70
2023-02-03T21:54:54.856Z,0.50
2023-02-03T21:57:40.134Z,0.80
2023-02-03T22:00:58.878Z,0.67
2023-02-03T22:03:51.405Z,0.60
2023-02-03T22:06:40.965Z,0.70
2023-02-03T22:09:27.659Z,0.60
2023-02-03T22:12:15.463Z,0.80
2023-02-03T22:15:00.739Z,0.80
2023-02-03T22:17:48.541Z,0.70
2023-02-03T22:20:36.307Z,0.67
2023-02-03T22:23:24.194Z,0.70
2023-02-03T22:26:11.441Z,0.93
2023-02-03T22:28:56.784Z,0.80
2023-02-03T22:31:43.177Z,0.80
2023-02-03T22:34:29.122Z,0.70
2023-02-03T22:37:17.380Z,0.60
2023-02-03T22:40:04.362Z,0.70
2023-02-03T22:42:52.919Z,0.60
2023-02-03T22:45:39.475Z,0.67
2023-02-03T22:48:25.625Z,0.80
2023-02-03T22:51:11.943Z,0.70
2023-02-03T22:53:57.846Z,0.80
2023-02-03T22:56:43.237Z,0.80
2023-02-03T22:59:28.949Z,0.80
2023-02-03T23:02:14.875Z,0.70
2023-02-03T23:05:00.563Z,0.73
2023-02-03T23:07:46.864Z,0.80
2023-02-03T23:10:33.019Z,1.30
2023-02-03T23:13:18.781Z,0.70
2023-02-03T23:16:07.358Z,0.93
2023-02-03T23:18:52.706Z,1.10
2023-02-03T23:21:43.584Z,0.70
2023-02-03T23:24:28.992Z,0.80
2023-02-03T23:27:14.471Z,0.83
2023-02-03T23:30:00.098Z,0.83
2023-02-03T23:32:45.341Z,1.00
2023-02-03T23:35:45.433Z,0.60
2023-02-03T23:38:33.604Z,0.90
2023-02-03T23:41:18.992Z,0.80
2023-02-03T23:44:04.658Z,0.97
2023-02-03T23:46:50.488Z,0.80
2023-02-03T23:49:36.401Z,0.80
2023-02-03T23:52:22.202Z,0.80
2023-02-03T23:55:12.835Z,0.83
2023-02-03T23:57:58.250Z,0.90
